Flying Cat 3 — SX6671 — position and weather

sailwx.info

Track history (hours):
 
Tides and Currents Weather Stations Pressure Air Temp Water Temp Dewpoint Dewpoint Depression Visibility Wind Speed Wind Dir Waves Ship Positions

Flying Cat 3

Last reported at 2015-Aug-04 12:33 UTC. Time now 2015-Aug-04 19:53 UTC.
Position N 37°43' E 023°41'.

Length 48 m; draft 1.5 m.

Type: High speed craft. MMSI: 239552000.

Date/timePositionNaut miles runAvg speedWind from/ knotsBaromVisibWave heightAir tempDewpointWater temp
2015-Aug-04 12:33N 37°43' E 023°41'1413.7
2015-Aug-04 11:31N 37°57' E 023°38'0 0.0
2015-Aug-04 10:28N 37°57' E 023°38'0 0.0
2015-Aug-04 09:25N 37°57' E 023°38'0 0.0
2015-Aug-04 08:31N 37°57' E 023°38'0 0.0
2015-Aug-04 07:31N 37°57' E 023°38'0 0.0
2015-Aug-04 05:28N 37°57' E 023°38'0 0.0
2015-Aug-04 04:28N 37°57' E 023°38'0 0.0
2015-Aug-04 03:31N 37°57' E 023°38'0 0.0
2015-Aug-04 02:31N 37°57' E 023°38'0 0.0
2015-Aug-04 01:28N 37°57' E 023°38'0 0.0
2015-Aug-04 00:31N 37°57' E 023°38'0 0.0
2015-Aug-03 23:31N 37°57' E 023°38'0 0.0
2015-Aug-03 22:31N 37°57' E 023°38'0 0.0
2015-Aug-03 21:31N 37°57' E 023°38'3 3.3
2015-Aug-03 20:34N 37°54' E 023°38'11 1.3
2015-Aug-03 12:33N 37°43' E 023°41'14 4.6
2015-Aug-03 09:31N 37°57' E 023°38'9 9.3
2015-Aug-03 08:34N 37°48' E 023°36'7 2.2
2015-Aug-03 05:34N 37°41' E 023°35'1514.9
2015-Aug-03 04:31N 37°57' E 023°39'0 0.0
2015-Aug-03 03:31N 37°57' E 023°39'0 0.0
2015-Aug-03 02:31N 37°57' E 023°39'0 0.0
2015-Aug-03 01:31N 37°57' E 023°39'0 0.0
2015-Aug-03 00:31N 37°57' E 023°39'0 0.0
2015-Aug-02 23:31N 37°57' E 023°39'0 0.0
2015-Aug-02 21:31N 37°57' E 023°39'1212.0
2015-Aug-02 20:34N 37°45' E 023°43'3 0.4
2015-Aug-02 12:32N 37°42' E 023°42'1514.5
2015-Aug-02 11:31N 37°57' E 023°38'0 0.0
2015-Aug-02 10:25N 37°57' E 023°38'0 0.0
2015-Aug-02 09:31N 37°57' E 023°38'6 5.8
2015-Aug-02 08:34N 37°51' E 023°37'10 3.4
2015-Aug-02 05:34N 37°41' E 023°35'1615.2
2015-Aug-02 04:31N 37°57' E 023°39'0 0.0
2015-Aug-02 03:28N 37°57' E 023°39'0 0.0
2015-Aug-02 02:31N 37°57' E 023°39'0 0.0
2015-Aug-02 01:31N 37°57' E 023°39'0 0.0
2015-Aug-02 00:31N 37°57' E 023°39'0 0.0
2015-Aug-01 23:28N 37°57' E 023°39'0 0.0
2015-Aug-01 22:31N 37°57' E 023°39'0 0.0
2015-Aug-01 21:31N 37°57' E 023°39'7 7.5
2015-Aug-01 20:34N 37°50' E 023°40'8 1.0
2015-Aug-01 12:33N 37°42' E 023°42'1514.8
2015-Aug-01 11:32N 37°57' E 023°38'0 0.0
2015-Aug-01 10:32N 37°57' E 023°38'0 0.0
2015-Aug-01 09:32N 37°57' E 023°38'1010.6
2015-Aug-01 08:34N 37°47' E 023°36'5 1.8
2015-Aug-01 05:34N 37°41' E 023°35'1514.4
2015-Aug-01 04:29N 37°57' E 023°39'0 0.0
2015-Aug-01 03:32N 37°57' E 023°39'0 0.0
2015-Aug-01 02:29N 37°57' E 023°39'0 0.0
2015-Aug-01 01:29N 37°57' E 023°39'0 0.0
2015-Aug-01 00:32N 37°57' E 023°39'0 0.0
2015-Jul-31 23:32N 37°57' E 023°39'0 0.0
2015-Jul-31 22:32N 37°57' E 023°39'0 0.0
2015-Jul-31 21:32N 37°57' E 023°39'4 3.8
2015-Jul-31 20:34N 37°53' E 023°39'11 1.4
2015-Jul-31 12:34N 37°42' E 023°41'1514.2
2015-Jul-31 11:31N 37°57' E 023°38'0 0.0
2015-Jul-31 10:31N 37°57' E 023°38'0 0.0
2015-Jul-31 09:31N 37°57' E 023°38'1010.7
2015-Jul-31 08:34N 37°46' E 023°36'5 1.6
2015-Jul-31 05:34N 37°42' E 023°35'1513.1
2015-Jul-31 04:25N 37°57' E 023°39'0 0.0
2015-Jul-31 03:28N 37°57' E 023°39'0 0.0
2015-Jul-31 02:25N 37°57' E 023°39'0 0.0
2015-Jul-31 01:25N 37°57' E 023°39'0 0.0
2015-Jul-31 00:28N 37°57' E 023°39'0 0.0
2015-Jul-30 23:31N 37°57' E 023°39'0 0.0
2015-Jul-30 22:31N 37°57' E 023°39'0 0.0
2015-Jul-30 21:25N 37°57' E 023°39'2 2.7
2015-Jul-30 20:34N 37°54' E 023°38'13 1.6
2015-Jul-30 12:33N 37°42' E 023°41'1514.6
2015-Jul-30 11:31N 37°57' E 023°38'0 0.0
2015-Jul-30 10:31N 37°57' E 023°38'0 0.0
2015-Jul-30 09:31N 37°57' E 023°38'0 0.0
2015-Jul-30 08:31N 37°57' E 023°38'0 0.0
2015-Jul-30 07:31N 37°57' E 023°38'0 0.0
2015-Jul-30 06:31N 37°57' E 023°38'0 0.0
2015-Jul-30 05:25N 37°57' E 023°38'0 0.0
2015-Jul-30 04:28N 37°57' E 023°38'0 0.0
2015-Jul-30 03:31N 37°57' E 023°38'0 0.0
2015-Jul-30 02:28N 37°57' E 023°38'0 0.0
2015-Jul-30 01:31N 37°57' E 023°38'0 0.0
2015-Jul-30 00:31N 37°57' E 023°38'0 0.0
2015-Jul-29 23:25N 37°57' E 023°38'0 0.0
2015-Jul-29 22:25N 37°57' E 023°38'0 0.0
2015-Jul-29 21:25N 37°57' E 023°38'910.5
2015-Jul-29 20:33N 37°48' E 023°41'6 0.8
2015-Jul-29 12:34N 37°42' E 023°42'1514.4
2015-Jul-29 11:30N 37°57' E 023°38'0 0.0
2015-Jul-29 10:33N 37°57' E 023°38'0 0.0
2015-Jul-29 09:30N 37°57' E 023°38'0 0.0
2015-Jul-29 08:33N 37°57' E 023°38'0 0.0
2015-Jul-29 07:33N 37°57' E 023°38'0 0.0
2015-Jul-29 06:33N 37°57' E 023°38'0 0.0
2015-Jul-29 05:33N 37°57' E 023°38'0 0.0
2015-Jul-29 04:33N 37°57' E 023°38'0 0.0
2015-Jul-29 03:33N 37°57' E 023°38'0 0.0
2015-Jul-29 02:33N 37°57' E 023°38'0 0.0
2015-Jul-29 01:30N 37°57' E 023°38'0 0.0
2015-Jul-29 00:33N 37°57' E 023°38'0 0.0
2015-Jul-28 23:33N 37°57' E 023°38'0 0.0
2015-Jul-28 22:33N 37°57' E 023°38'0 0.0
2015-Jul-28 21:33N 37°57' E 023°38'2 2.3
2015-Jul-28 20:34N 37°54' E 023°38'13 1.7
2015-Jul-28 12:34N 37°41' E 023°42'1615.5
2015-Jul-28 11:33N 37°57' E 023°38'0 0.0
2015-Jul-28 10:33N 37°57' E 023°38'0 0.0
2015-Jul-28 09:33N 37°57' E 023°38'0 0.0
2015-Jul-28 08:33N 37°57' E 023°38'0 0.0
2015-Jul-28 07:33N 37°57' E 023°38'0 0.0
2015-Jul-28 06:30N 37°57' E 023°38'0 0.0
2015-Jul-28 05:33N 37°57' E 023°38'0 0.0
2015-Jul-28 04:33N 37°57' E 023°38'0 0.0
2015-Jul-28 03:33N 37°57' E 023°38'0 0.0
2015-Jul-28 02:33N 37°57' E 023°38'0 0.0
2015-Jul-28 01:33N 37°57' E 023°38'0 0.0
2015-Jul-28 00:33N 37°57' E 023°38'0 0.0
2015-Jul-27 23:33N 37°57' E 023°38'0 0.0
2015-Jul-27 22:33N 37°57' E 023°38'0 0.0
2015-Jul-27 21:30N 37°57' E 023°38'3 2.9
2015-Jul-27 20:33N 37°54' E 023°38'4137.6
2015-Jul-27 19:28N 37°21' E 024°08'30 4.3
2015-Jul-27 12:34N 37°42' E 023°41'1513.4
2015-Jul-27 11:27N 37°57' E 023°38'0 0.0
2015-Jul-27 10:33N 37°57' E 023°38'0 0.0
2015-Jul-27 09:30N 37°57' E 023°38'8 8.6
2015-Jul-27 08:34N 37°49' E 023°36'8 2.8
2015-Jul-27 05:34N 37°40' E 023°35'1616.2
2015-Jul-27 04:33N 37°57' E 023°39'0 0.0
2015-Jul-27 03:33N 37°57' E 023°39'0 0.0
2015-Jul-27 02:33N 37°57' E 023°39'0 0.0
2015-Jul-27 01:30N 37°57' E 023°39'0 0.0
2015-Jul-27 00:33N 37°57' E 023°39'0 0.0
2015-Jul-26 23:33N 37°57' E 023°39'0 0.0
2015-Jul-26 22:30N 37°57' E 023°39'0 0.0
2015-Jul-26 21:33N 37°57' E 023°39'4 3.6
2015-Jul-26 20:34N 37°53' E 023°39'8527.0
2015-Jul-26 17:26N 36°54' E 024°54'7415.3
2015-Jul-26 12:33N 37°41' E 023°42'1615.0
2015-Jul-26 11:29N 37°57' E 023°38'0 0.0
2015-Jul-26 10:32N 37°57' E 023°38'0 0.0
2015-Jul-26 09:32N 37°57' E 023°38'5 5.0
2015-Jul-26 08:34N 37°52' E 023°37'3214.5
2015-Jul-26 06:23N 37°21' E 023°28'2024.4
2015-Jul-26 05:33N 37°41' E 023°35'1616.3
2015-Jul-26 04:33N 37°57' E 023°39'0 0.0
2015-Jul-26 03:33N 37°57' E 023°39'0 0.0
2015-Jul-26 02:33N 37°57' E 023°39'0 0.0
2015-Jul-26 01:33N 37°57' E 023°39'0 0.0
2015-Jul-26 00:33N 37°57' E 023°39'0 0.0
2015-Jul-25 23:33N 37°57' E 023°39'0 0.0
2015-Jul-25 22:33N 37°57' E 023°39'0 0.0
2015-Jul-25 21:33N 37°57' E 023°39'2 1.8
2015-Jul-25 20:34N 37°55' E 023°37'5738.5
2015-Jul-25 19:05N 37°10' E 024°21'  
Track history (hours):
 
Tides and Currents Weather Stations Pressure Air Temp Water Temp Dewpoint Dewpoint Depression Visibility Wind Speed Wind Dir Waves Ship Positions

Flying Cat 3

Last reported at 2015-Aug-04 12:33 UTC. Time now 2015-Aug-04 19:53 UTC.
Position N 37°43' E 023°41'.

Length 48 m; draft 1.5 m.

Type: High speed craft. MMSI: 239552000.

Date/timePositionNaut miles runAvg speedWind from/ knotsBaromVisibWave heightAir tempDewpointWater temp
2015-Aug-04 12:33N 37°43' E 023°41'1413.7
2015-Aug-04 11:31N 37°57' E 023°38'0 0.0
2015-Aug-04 10:28N 37°57' E 023°38'0 0.0
2015-Aug-04 09:25N 37°57' E 023°38'0 0.0
2015-Aug-04 08:31N 37°57' E 023°38'0 0.0
2015-Aug-04 07:31N 37°57' E 023°38'0 0.0
2015-Aug-04 05:28N 37°57' E 023°38'0 0.0
2015-Aug-04 04:28N 37°57' E 023°38'0 0.0
2015-Aug-04 03:31N 37°57' E 023°38'0 0.0
2015-Aug-04 02:31N 37°57' E 023°38'0 0.0
2015-Aug-04 01:28N 37°57' E 023°38'0 0.0
2015-Aug-04 00:31N 37°57' E 023°38'0 0.0
2015-Aug-03 23:31N 37°57' E 023°38'0 0.0
2015-Aug-03 22:31N 37°57' E 023°38'0 0.0
2015-Aug-03 21:31N 37°57' E 023°38'3 3.3
2015-Aug-03 20:34N 37°54' E 023°38'11 1.3
2015-Aug-03 12:33N 37°43' E 023°41'14 4.6
2015-Aug-03 09:31N 37°57' E 023°38'9 9.3
2015-Aug-03 08:34N 37°48' E 023°36'7 2.2
2015-Aug-03 05:34N 37°41' E 023°35'1514.9
2015-Aug-03 04:31N 37°57' E 023°39'0 0.0
2015-Aug-03 03:31N 37°57' E 023°39'0 0.0
2015-Aug-03 02:31N 37°57' E 023°39'0 0.0
2015-Aug-03 01:31N 37°57' E 023°39'0 0.0
2015-Aug-03 00:31N 37°57' E 023°39'0 0.0
2015-Aug-02 23:31N 37°57' E 023°39'0 0.0
2015-Aug-02 21:31N 37°57' E 023°39'1212.0
2015-Aug-02 20:34N 37°45' E 023°43'3 0.4
2015-Aug-02 12:32N 37°42' E 023°42'1514.5
2015-Aug-02 11:31N 37°57' E 023°38'0 0.0
2015-Aug-02 10:25N 37°57' E 023°38'0 0.0
2015-Aug-02 09:31N 37°57' E 023°38'6 5.8
2015-Aug-02 08:34N 37°51' E 023°37'10 3.4
2015-Aug-02 05:34N 37°41' E 023°35'1615.2
2015-Aug-02 04:31N 37°57' E 023°39'0 0.0
2015-Aug-02 03:28N 37°57' E 023°39'0 0.0
2015-Aug-02 02:31N 37°57' E 023°39'0 0.0
2015-Aug-02 01:31N 37°57' E 023°39'0 0.0
2015-Aug-02 00:31N 37°57' E 023°39'0 0.0
2015-Aug-01 23:28N 37°57' E 023°39'0 0.0
2015-Aug-01 22:31N 37°57' E 023°39'0 0.0
2015-Aug-01 21:31N 37°57' E 023°39'7 7.5
2015-Aug-01 20:34N 37°50' E 023°40'8 1.0
2015-Aug-01 12:33N 37°42' E 023°42'1514.8
2015-Aug-01 11:32N 37°57' E 023°38'0 0.0
2015-Aug-01 10:32N 37°57' E 023°38'0 0.0
2015-Aug-01 09:32N 37°57' E 023°38'1010.6
2015-Aug-01 08:34N 37°47' E 023°36'5 1.8
2015-Aug-01 05:34N 37°41' E 023°35'1514.4
2015-Aug-01 04:29N 37°57' E 023°39'0 0.0
2015-Aug-01 03:32N 37°57' E 023°39'0 0.0
2015-Aug-01 02:29N 37°57' E 023°39'0 0.0
2015-Aug-01 01:29N 37°57' E 023°39'0 0.0
2015-Aug-01 00:32N 37°57' E 023°39'0 0.0
2015-Jul-31 23:32N 37°57' E 023°39'0 0.0
2015-Jul-31 22:32N 37°57' E 023°39'0 0.0
2015-Jul-31 21:32N 37°57' E 023°39'4 3.8
2015-Jul-31 20:34N 37°53' E 023°39'11 1.4
2015-Jul-31 12:34N 37°42' E 023°41'1514.2
2015-Jul-31 11:31N 37°57' E 023°38'0 0.0
2015-Jul-31 10:31N 37°57' E 023°38'0 0.0
2015-Jul-31 09:31N 37°57' E 023°38'1010.7
2015-Jul-31 08:34N 37°46' E 023°36'5 1.6
2015-Jul-31 05:34N 37°42' E 023°35'1513.1
2015-Jul-31 04:25N 37°57' E 023°39'0 0.0
2015-Jul-31 03:28N 37°57' E 023°39'0 0.0
2015-Jul-31 02:25N 37°57' E 023°39'0 0.0
2015-Jul-31 01:25N 37°57' E 023°39'0 0.0
2015-Jul-31 00:28N 37°57' E 023°39'0 0.0
2015-Jul-30 23:31N 37°57' E 023°39'0 0.0
2015-Jul-30 22:31N 37°57' E 023°39'0 0.0
2015-Jul-30 21:25N 37°57' E 023°39'2 2.7
2015-Jul-30 20:34N 37°54' E 023°38'13 1.6
2015-Jul-30 12:33N 37°42' E 023°41'1514.6
2015-Jul-30 11:31N 37°57' E 023°38'0 0.0
2015-Jul-30 10:31N 37°57' E 023°38'0 0.0
2015-Jul-30 09:31N 37°57' E 023°38'0 0.0
2015-Jul-30 08:31N 37°57' E 023°38'0 0.0
2015-Jul-30 07:31N 37°57' E 023°38'0 0.0
2015-Jul-30 06:31N 37°57' E 023°38'0 0.0
2015-Jul-30 05:25N 37°57' E 023°38'0 0.0
2015-Jul-30 04:28N 37°57' E 023°38'0 0.0
2015-Jul-30 03:31N 37°57' E 023°38'0 0.0
2015-Jul-30 02:28N 37°57' E 023°38'0 0.0
2015-Jul-30 01:31N 37°57' E 023°38'0 0.0
2015-Jul-30 00:31N 37°57' E 023°38'0 0.0
2015-Jul-29 23:25N 37°57' E 023°38'0 0.0
2015-Jul-29 22:25N 37°57' E 023°38'0 0.0
2015-Jul-29 21:25N 37°57' E 023°38'910.5
2015-Jul-29 20:33N 37°48' E 023°41'6 0.8
2015-Jul-29 12:34N 37°42' E 023°42'1514.4
2015-Jul-29 11:30N 37°57' E 023°38'0 0.0
2015-Jul-29 10:33N 37°57' E 023°38'0 0.0
2015-Jul-29 09:30N 37°57' E 023°38'0 0.0
2015-Jul-29 08:33N 37°57' E 023°38'0 0.0
2015-Jul-29 07:33N 37°57' E 023°38'0 0.0
2015-Jul-29 06:33N 37°57' E 023°38'0 0.0
2015-Jul-29 05:33N 37°57' E 023°38'0 0.0
2015-Jul-29 04:33N 37°57' E 023°38'0 0.0
2015-Jul-29 03:33N 37°57' E 023°38'0 0.0
2015-Jul-29 02:33N 37°57' E 023°38'0 0.0
2015-Jul-29 01:30N 37°57' E 023°38'0 0.0
2015-Jul-29 00:33N 37°57' E 023°38'0 0.0
2015-Jul-28 23:33N 37°57' E 023°38'0 0.0
2015-Jul-28 22:33N 37°57' E 023°38'0 0.0
2015-Jul-28 21:33N 37°57' E 023°38'2 2.3
2015-Jul-28 20:34N 37°54' E 023°38'13 1.7
2015-Jul-28 12:34N 37°41' E 023°42'1615.5
2015-Jul-28 11:33N 37°57' E 023°38'0 0.0
2015-Jul-28 10:33N 37°57' E 023°38'0 0.0
2015-Jul-28 09:33N 37°57' E 023°38'0 0.0
2015-Jul-28 08:33N 37°57' E 023°38'0 0.0
2015-Jul-28 07:33N 37°57' E 023°38'0 0.0
2015-Jul-28 06:30N 37°57' E 023°38'0 0.0
2015-Jul-28 05:33N 37°57' E 023°38'0 0.0
2015-Jul-28 04:33N 37°57' E 023°38'0 0.0
2015-Jul-28 03:33N 37°57' E 023°38'0 0.0
2015-Jul-28 02:33N 37°57' E 023°38'0 0.0
2015-Jul-28 01:33N 37°57' E 023°38'0 0.0
2015-Jul-28 00:33N 37°57' E 023°38'0 0.0
2015-Jul-27 23:33N 37°57' E 023°38'0 0.0
2015-Jul-27 22:33N 37°57' E 023°38'0 0.0
2015-Jul-27 21:30N 37°57' E 023°38'3 2.9
2015-Jul-27 20:33N 37°54' E 023°38'4137.6
2015-Jul-27 19:28N 37°21' E 024°08'30 4.3
2015-Jul-27 12:34N 37°42' E 023°41'1513.4
2015-Jul-27 11:27N 37°57' E 023°38'0 0.0
2015-Jul-27 10:33N 37°57' E 023°38'0 0.0
2015-Jul-27 09:30N 37°57' E 023°38'8 8.6
2015-Jul-27 08:34N 37°49' E 023°36'8 2.8
2015-Jul-27 05:34N 37°40' E 023°35'1616.2
2015-Jul-27 04:33N 37°57' E 023°39'0 0.0
2015-Jul-27 03:33N 37°57' E 023°39'0 0.0
2015-Jul-27 02:33N 37°57' E 023°39'0 0.0
2015-Jul-27 01:30N 37°57' E 023°39'0 0.0
2015-Jul-27 00:33N 37°57' E 023°39'0 0.0
2015-Jul-26 23:33N 37°57' E 023°39'0 0.0
2015-Jul-26 22:30N 37°57' E 023°39'0 0.0
2015-Jul-26 21:33N 37°57' E 023°39'4 3.6
2015-Jul-26 20:34N 37°53' E 023°39'8527.0
2015-Jul-26 17:26N 36°54' E 024°54'7415.3
2015-Jul-26 12:33N 37°41' E 023°42'1615.0
2015-Jul-26 11:29N 37°57' E 023°38'0 0.0
2015-Jul-26 10:32N 37°57' E 023°38'0 0.0
2015-Jul-26 09:32N 37°57' E 023°38'5 5.0
2015-Jul-26 08:34N 37°52' E 023°37'3214.5
2015-Jul-26 06:23N 37°21' E 023°28'2024.4
2015-Jul-26 05:33N 37°41' E 023°35'1616.3
2015-Jul-26 04:33N 37°57' E 023°39'0 0.0
2015-Jul-26 03:33N 37°57' E 023°39'0 0.0
2015-Jul-26 02:33N 37°57' E 023°39'0 0.0
2015-Jul-26 01:33N 37°57' E 023°39'0 0.0
2015-Jul-26 00:33N 37°57' E 023°39'0 0.0
2015-Jul-25 23:33N 37°57' E 023°39'0 0.0
2015-Jul-25 22:33N 37°57' E 023°39'0 0.0
2015-Jul-25 21:33N 37°57' E 023°39'2 1.8
2015-Jul-25 20:34N 37°55' E 023°37'5738.5
2015-Jul-25 19:05N 37°10' E 024°21'  

Dump ship's entire track history